sensor_id;sensor_type;location;lat;lon;timestamp;temperature;humidity
2465;DHT22;1244;54.326;10.074;2023-08-07T00:00:41;15.10;99.90
2465;DHT22;1244;54.326;10.074;2023-08-07T00:03:06;15.10;99.90
2465;DHT22;1244;54.326;10.074;2023-08-07T00:05:32;15.10;99.90
2465;DHT22;1244;54.326;10.074;2023-08-07T00:07:57;15.10;99.90
2465;DHT22;1244;54.326;10.074;2023-08-07T00:10:23;15.00;99.90
2465;DHT22;1244;54.326;10.074;2023-08-07T00:12:49;15.00;99.90
2465;DHT22;1244;54.326;10.074;2023-08-07T00:15:15;15.00;99.90
2465;DHT22;1244;54.326;10.074;2023-08-07T00:17:40;15.00;99.90
2465;DHT22;1244;54.326;10.074;2023-08-07T00:20:07;15.00;99.90
2465;DHT22;1244;54.326;10.074;2023-08-07T00:22:33;14.90;99.90
2465;DHT22;1244;54.326;10.074;2023-08-07T00:24:58;14.90;99.90
2465;DHT22;1244;54.326;10.074;2023-08-07T00:27:24;14.80;99.90
2465;DHT22;1244;54.326;10.074;2023-08-07T00:29:49;14.90;99.90
2465;DHT22;1244;54.326;10.074;2023-08-07T00:32:14;15.00;99.90
2465;DHT22;1244;54.326;10.074;2023-08-07T00:34:40;14.90;99.90
2465;DHT22;1244;54.326;10.074;2023-08-07T00:37:06;14.90;99.90
2465;DHT22;1244;54.326;10.074;2023-08-07T00:39:31;15.00;99.90
2465;DHT22;1244;54.326;10.074;2023-08-07T00:41:57;14.90;99.90
2465;DHT22;1244;54.326;10.074;2023-08-07T00:44:22;14.90;99.90
2465;DHT22;1244;54.326;10.074;2023-08-07T00:46:51;14.90;99.90
2465;DHT22;1244;54.326;10.074;2023-08-07T00:49:17;14.90;99.90
2465;DHT22;1244;54.326;10.074;2023-08-07T00:51:44;14.90;99.90
2465;DHT22;1244;54.326;10.074;2023-08-07T00:54:11;14.80;99.90
2465;DHT22;1244;54.326;10.074;2023-08-07T00:56:37;14.80;99.90
2465;DHT22;1244;54.326;10.074;2023-08-07T00:59:03;14.80;99.90
2465;DHT22;1244;54.326;10.074;2023-08-07T01:01:28;14.80;99.90
2465;DHT22;1244;54.326;10.074;2023-08-07T01:03:54;14.80;99.90
2465;DHT22;1244;54.326;10.074;2023-08-07T01:06:20;14.80;99.90
2465;DHT22;1244;54.326;10.074;2023-08-07T01:08:46;14.80;99.90
2465;DHT22;1244;54.326;10.074;2023-08-07T01:12:19;14.80;99.90
2465;DHT22;1244;54.326;10.074;2023-08-07T01:14:26;14.80;99.90
2465;DHT22;1244;54.326;10.074;2023-08-07T01:17:05;14.70;99.90
2465;DHT22;1244;54.326;10.074;2023-08-07T01:19:31;14.80;99.90
2465;DHT22;1244;54.326;10.074;2023-08-07T01:22:08;14.70;99.90
2465;DHT22;1244;54.326;10.074;2023-08-07T01:24:35;14.70;99.90
2465;DHT22;1244;54.326;10.074;2023-08-07T01:27:15;14.80;99.90
2465;DHT22;1244;54.326;10.074;2023-08-07T01:35:16;14.80;99.90
2465;DHT22;1244;54.326;10.074;2023-08-07T01:37:42;14.70;99.90
2465;DHT22;1244;54.326;10.074;2023-08-07T01:40:11;14.70;99.90
2465;DHT22;1244;54.326;10.074;2023-08-07T01:42:37;14.70;99.90
2465;DHT22;1244;54.326;10.074;2023-08-07T01:45:05;14.70;99.90
2465;DHT22;1244;54.326;10.074;2023-08-07T01:47:30;14.80;99.90
2465;DHT22;1244;54.326;10.074;2023-08-07T01:49:56;14.80;99.90
2465;DHT22;1244;54.326;10.074;2023-08-07T01:52:21;14.70;99.90
2465;DHT22;1244;54.326;10.074;2023-08-07T01:54:47;14.70;99.90
2465;DHT22;1244;54.326;10.074;2023-08-07T01:57:13;14.70;99.90
2465;DHT22;1244;54.326;10.074;2023-08-07T01:59:39;14.60;99.90
2465;DHT22;1244;54.326;10.074;2023-08-07T02:02:04;14.60;99.90
2465;DHT22;1244;54.326;10.074;2023-08-07T02:04:30;14.60;99.90
2465;DHT22;1244;54.326;10.074;2023-08-07T02:06:55;14.70;99.90
2465;DHT22;1244;54.326;10.074;2023-08-07T02:09:22;14.60;99.90
2465;DHT22;1244;54.326;10.074;2023-08-07T02:11:47;14.60;99.90
2465;DHT22;1244;54.326;10.074;2023-08-07T02:14:13;14.60;99.90
2465;DHT22;1244;54.326;10.074;2023-08-07T02:16:38;14.60;99.90
2465;DHT22;1244;54.326;10.074;2023-08-07T02:19:04;14.60;99.90
2465;DHT22;1244;54.326;10.074;2023-08-07T02:21:29;14.60;99.90
2465;DHT22;1244;54.326;10.074;2023-08-07T02:23:55;14.60;99.90
2465;DHT22;1244;54.326;10.074;2023-08-07T02:26:20;14.50;99.90
2465;DHT22;1244;54.326;10.074;2023-08-07T02:28:46;14.60;99.90
2465;DHT22;1244;54.326;10.074;2023-08-07T02:31:11;14.60;99.90
2465;DHT22;1244;54.326;10.074;2023-08-07T02:33:37;14.50;99.90
2465;DHT22;1244;54.326;10.074;2023-08-07T02:36:03;14.50;99.90
2465;DHT22;1244;54.326;10.074;2023-08-07T02:38:28;14.60;99.90
2465;DHT22;1244;54.326;10.074;2023-08-07T02:40:54;14.60;99.90
2465;DHT22;1244;54.326;10.074;2023-08-07T02:43:19;14.60;99.90
2465;DHT22;1244;54.326;10.074;2023-08-07T02:45:45;14.60;99.90
2465;DHT22;1244;54.326;10.074;2023-08-07T02:48:10;14.60;99.90
2465;DHT22;1244;54.326;10.074;2023-08-07T02:50:36;14.60;99.90
2465;DHT22;1244;54.326;10.074;2023-08-07T02:53:02;14.50;99.90
2465;DHT22;1244;54.326;10.074;2023-08-07T02:55:27;14.60;99.90
2465;DHT22;1244;54.326;10.074;2023-08-07T02:57:53;14.50;99.90
2465;DHT22;1244;54.326;10.074;2023-08-07T03:00:19;14.50;99.90
2465;DHT22;1244;54.326;10.074;2023-08-07T03:02:44;14.60;99.90
2465;DHT22;1244;54.326;10.074;2023-08-07T03:05:10;14.60;99.90
2465;DHT22;1244;54.326;10.074;2023-08-07T03:07:35;14.60;99.90
2465;DHT22;1244;54.326;10.074;2023-08-07T03:10:01;14.60;99.90
2465;DHT22;1244;54.326;10.074;2023-08-07T03:12:26;14.60;99.90
2465;DHT22;1244;54.326;10.074;2023-08-07T03:14:52;14.60;99.90
2465;DHT22;1244;54.326;10.074;2023-08-07T03:17:17;14.50;99.90
2465;DHT22;1244;54.326;10.074;2023-08-07T03:19:43;14.50;99.90
2465;DHT22;1244;54.326;10.074;2023-08-07T03:22:09;14.60;99.90
2465;DHT22;1244;54.326;10.074;2023-08-07T03:24:35;14.50;99.90
2465;DHT22;1244;54.326;10.074;2023-08-07T03:27:00;14.50;99.90
2465;DHT22;1244;54.326;10.074;2023-08-07T03:29:26;14.50;99.90
2465;DHT22;1244;54.326;10.074;2023-08-07T03:31:52;14.60;99.90
2465;DHT22;1244;54.326;10.074;2023-08-07T03:34:17;14.50;99.90
2465;DHT22;1244;54.326;10.074;2023-08-07T03:36:43;14.60;99.90
2465;DHT22;1244;54.326;10.074;2023-08-07T03:39:08;14.50;99.90
2465;DHT22;1244;54.326;10.074;2023-08-07T03:41:35;14.50;99.90
2465;DHT22;1244;54.326;10.074;2023-08-07T03:44:01;14.40;99.90
2465;DHT22;1244;54.326;10.074;2023-08-07T03:46:26;14.50;99.90
2465;DHT22;1244;54.326;10.074;2023-08-07T03:48:52;14.50;99.90
2465;DHT22;1244;54.326;10.074;2023-08-07T03:51:17;14.50;99.90
2465;DHT22;1244;54.326;10.074;2023-08-07T03:53:43;14.50;99.90
2465;DHT22;1244;54.326;10.074;2023-08-07T03:56:09;14.50;99.90
2465;DHT22;1244;54.326;10.074;2023-08-07T03:58:34;14.50;99.90
2465;DHT22;1244;54.326;10.074;2023-08-07T04:01:00;14.50;99.90
2465;DHT22;1244;54.326;10.074;2023-08-07T04:03:25;14.50;99.90
2465;DHT22;1244;54.326;10.074;2023-08-07T04:05:52;14.60;99.90
2465;DHT22;1244;54.326;10.074;2023-08-07T04:08:19;14.60;99.90
2465;DHT22;1244;54.326;10.074;2023-08-07T04:10:44;14.60;99.90
2465;DHT22;1244;54.326;10.074;2023-08-07T04:13:10;14.60;99.90
2465;DHT22;1244;54.326;10.074;2023-08-07T04:15:35;14.50;99.90
2465;DHT22;1244;54.326;10.074;2023-08-07T04:18:01;14.60;99.90
2465;DHT22;1244;54.326;10.074;2023-08-07T04:20:26;14.60;99.90
2465;DHT22;1244;54.326;10.074;2023-08-07T04:22:52;14.60;99.90
2465;DHT22;1244;54.326;10.074;2023-08-07T04:25:17;14.60;99.90
2465;DHT22;1244;54.326;10.074;2023-08-07T04:27:43;14.60;99.90
2465;DHT22;1244;54.326;10.074;2023-08-07T04:30:09;14.60;99.90
2465;DHT22;1244;54.326;10.074;2023-08-07T04:32:34;14.70;99.90
2465;DHT22;1244;54.326;10.074;2023-08-07T04:35:00;14.60;99.90
2465;DHT22;1244;54.326;10.074;2023-08-07T04:37:25;14.60;99.90
2465;DHT22;1244;54.326;10.074;2023-08-07T04:39:51;14.60;99.90
2465;DHT22;1244;54.326;10.074;2023-08-07T04:42:17;14.60;99.90
2465;DHT22;1244;54.326;10.074;2023-08-07T04:44:42;14.70;99.90
2465;DHT22;1244;54.326;10.074;2023-08-07T04:47:08;14.70;99.90
2465;DHT22;1244;54.326;10.074;2023-08-07T04:49:33;14.70;99.90
2465;DHT22;1244;54.326;10.074;2023-08-07T04:51:59;14.70;99.90
2465;DHT22;1244;54.326;10.074;2023-08-07T04:54:24;14.70;99.90
2465;DHT22;1244;54.326;10.074;2023-08-07T04:56:50;14.80;99.90
2465;DHT22;1244;54.326;10.074;2023-08-07T04:59:15;14.90;99.90
2465;DHT22;1244;54.326;10.074;2023-08-07T05:01:41;14.90;99.90
2465;DHT22;1244;54.326;10.074;2023-08-07T05:04:07;14.80;99.90
2465;DHT22;1244;54.326;10.074;2023-08-07T05:06:32;14.80;99.90
2465;DHT22;1244;54.326;10.074;2023-08-07T05:08:58;14.90;99.90
2465;DHT22;1244;54.326;10.074;2023-08-07T05:11:23;14.90;99.90
2465;DHT22;1244;54.326;10.074;2023-08-07T05:13:49;14.90;99.90
2465;DHT22;1244;54.326;10.074;2023-08-07T05:16:14;14.90;99.90
2465;DHT22;1244;54.326;10.074;2023-08-07T05:18:40;14.90;99.90
2465;DHT22;1244;54.326;10.074;2023-08-07T05:21:05;15.00;99.90
2465;DHT22;1244;54.326;10.074;2023-08-07T05:23:34;15.10;99.90
2465;DHT22;1244;54.326;10.074;2023-08-07T05:25:59;15.10;99.90
2465;DHT22;1244;54.326;10.074;2023-08-07T05:28:25;15.20;99.90
2465;DHT22;1244;54.326;10.074;2023-08-07T05:30:50;15.20;99.90
2465;DHT22;1244;54.326;10.074;2023-08-07T05:33:16;15.20;99.90
2465;DHT22;1244;54.326;10.074;2023-08-07T05:35:41;15.20;99.90
2465;DHT22;1244;54.326;10.074;2023-08-07T05:38:07;15.30;99.90
2465;DHT22;1244;54.326;10.074;2023-08-07T05:40:32;15.30;99.90
2465;DHT22;1244;54.326;10.074;2023-08-07T05:43:01;15.20;99.90
2465;DHT22;1244;54.326;10.074;2023-08-07T05:45:26;15.30;99.90
2465;DHT22;1244;54.326;10.074;2023-08-07T05:47:52;15.40;99.90
2465;DHT22;1244;54.326;10.074;2023-08-07T05:50:17;15.40;99.90
2465;DHT22;1244;54.326;10.074;2023-08-07T05:52:43;15.40;99.90
2465;DHT22;1244;54.326;10.074;2023-08-07T05:55:08;15.40;99.90
2465;DHT22;1244;54.326;10.074;2023-08-07T05:57:34;15.30;99.90
2465;DHT22;1244;54.326;10.074;2023-08-07T06:00:00;15.40;99.90
2465;DHT22;1244;54.326;10.074;2023-08-07T06:02:26;15.40;99.90
2465;DHT22;1244;54.326;10.074;2023-08-07T06:04:52;15.40;99.90
2465;DHT22;1244;54.326;10.074;2023-08-07T06:07:18;15.50;99.90
2465;DHT22;1244;54.326;10.074;2023-08-07T06:09:43;15.40;99.90
2465;DHT22;1244;54.326;10.074;2023-08-07T06:12:09;15.50;99.90
2465;DHT22;1244;54.326;10.074;2023-08-07T06:14:34;15.60;99.90
2465;DHT22;1244;54.326;10.074;2023-08-07T06:17:00;15.60;99.90
2465;DHT22;1244;54.326;10.074;2023-08-07T06:19:27;15.70;99.90
2465;DHT22;1244;54.326;10.074;2023-08-07T06:21:52;15.60;99.90
2465;DHT22;1244;54.326;10.074;2023-08-07T06:24:19;15.70;99.90
2465;DHT22;1244;54.326;10.074;2023-08-07T06:26:45;15.80;99.90
2465;DHT22;1244;54.326;10.074;2023-08-07T06:29:10;15.80;99.90
2465;DHT22;1244;54.326;10.074;2023-08-07T06:31:36;15.80;99.90
2465;DHT22;1244;54.326;10.074;2023-08-07T06:34:01;15.80;99.90
2465;DHT22;1244;54.326;10.074;2023-08-07T06:36:27;15.90;99.90
2465;DHT22;1244;54.326;10.074;2023-08-07T06:38:52;15.80;99.90
2465;DHT22;1244;54.326;10.074;2023-08-07T06:41:18;15.90;99.90
2465;DHT22;1244;54.326;10.074;2023-08-07T06:43:44;15.90;99.90
2465;DHT22;1244;54.326;10.074;2023-08-07T06:46:09;15.90;99.90
2465;DHT22;1244;54.326;10.074;2023-08-07T06:48:36;15.80;99.90
2465;DHT22;1244;54.326;10.074;2023-08-07T06:51:02;15.90;99.90
2465;DHT22;1244;54.326;10.074;2023-08-07T06:53:27;16.00;99.90
2465;DHT22;1244;54.326;10.074;2023-08-07T06:55:53;16.10;99.90
2465;DHT22;1244;54.326;10.074;2023-08-07T06:58:18;15.90;99.90
2465;DHT22;1244;54.326;10.074;2023-08-07T07:00:44;15.90;99.90
2465;DHT22;1244;54.326;10.074;2023-08-07T07:03:11;16.00;99.90
2465;DHT22;1244;54.326;10.074;2023-08-07T07:05:37;16.00;99.90
2465;DHT22;1244;54.326;10.074;2023-08-07T07:08:02;16.10;99.90
2465;DHT22;1244;54.326;10.074;2023-08-07T07:10:28;16.10;99.90
2465;DHT22;1244;54.326;10.074;2023-08-07T07:12:54;16.00;99.90
2465;DHT22;1244;54.326;10.074;2023-08-07T07:15:20;16.20;99.90
2465;DHT22;1244;54.326;10.074;2023-08-07T07:17:46;16.20;99.90
2465;DHT22;1244;54.326;10.074;2023-08-07T07:20:11;16.20;99.90
2465;DHT22;1244;54.326;10.074;2023-08-07T07:22:37;16.20;99.90
2465;DHT22;1244;54.326;10.074;2023-08-07T07:25:04;16.30;99.90
2465;DHT22;1244;54.326;10.074;2023-08-07T07:27:30;16.40;99.90
2465;DHT22;1244;54.326;10.074;2023-08-07T07:29:55;16.20;99.90
2465;DHT22;1244;54.326;10.074;2023-08-07T07:32:21;16.30;99.90
2465;DHT22;1244;54.326;10.074;2023-08-07T07:34:46;16.30;99.90
2465;DHT22;1244;54.326;10.074;2023-08-07T07:37:13;16.20;99.90
2465;DHT22;1244;54.326;10.074;2023-08-07T07:39:39;16.20;99.90
2465;DHT22;1244;54.326;10.074;2023-08-07T07:42:06;16.20;99.90
2465;DHT22;1244;54.326;10.074;2023-08-07T07:44:32;16.10;99.90
2465;DHT22;1244;54.326;10.074;2023-08-07T07:46:58;16.00;99.90
2465;DHT22;1244;54.326;10.074;2023-08-07T07:49:24;15.90;99.90
2465;DHT22;1244;54.326;10.074;2023-08-07T07:51:49;16.00;99.90
2465;DHT22;1244;54.326;10.074;2023-08-07T07:54:15;16.10;99.90
2465;DHT22;1244;54.326;10.074;2023-08-07T07:56:42;16.20;99.90
2465;DHT22;1244;54.326;10.074;2023-08-07T07:59:08;16.30;99.90
2465;DHT22;1244;54.326;10.074;2023-08-07T08:01:33;16.20;99.90
2465;DHT22;1244;54.326;10.074;2023-08-07T08:03:59;16.40;99.90
2465;DHT22;1244;54.326;10.074;2023-08-07T08:06:24;16.50;99.90
2465;DHT22;1244;54.326;10.074;2023-08-07T08:08:50;16.60;99.90
2465;DHT22;1244;54.326;10.074;2023-08-07T08:11:15;16.60;99.90
2465;DHT22;1244;54.326;10.074;2023-08-07T08:13:40;16.80;99.90
2465;DHT22;1244;54.326;10.074;2023-08-07T08:16:06;16.80;99.90
2465;DHT22;1244;54.326;10.074;2023-08-07T08:18:32;16.80;99.90
2465;DHT22;1244;54.326;10.074;2023-08-07T08:20:58;16.90;99.90
2465;DHT22;1244;54.326;10.074;2023-08-07T08:23:23;16.90;99.90
2465;DHT22;1244;54.326;10.074;2023-08-07T08:25:49;17.00;99.90
2465;DHT22;1244;54.326;10.074;2023-08-07T08:28:14;17.00;99.90
2465;DHT22;1244;54.326;10.074;2023-08-07T08:30:41;17.00;99.90
2465;DHT22;1244;54.326;10.074;2023-08-07T08:33:07;16.90;99.90
2465;DHT22;1244;54.326;10.074;2023-08-07T08:35:34;17.00;99.90
2465;DHT22;1244;54.326;10.074;2023-08-07T08:38:00;16.90;99.90
2465;DHT22;1244;54.326;10.074;2023-08-07T08:40:26;16.90;99.90
2465;DHT22;1244;54.326;10.074;2023-08-07T08:42:53;16.90;99.90
2465;DHT22;1244;54.326;10.074;2023-08-07T08:45:24;16.90;99.90
2465;DHT22;1244;54.326;10.074;2023-08-07T08:47:51;16.90;99.90
2465;DHT22;1244;54.326;10.074;2023-08-07T08:50:20;16.90;99.90
2465;DHT22;1244;54.326;10.074;2023-08-07T08:52:46;17.00;99.90
2465;DHT22;1244;54.326;10.074;2023-08-07T08:55:12;17.10;99.90
2465;DHT22;1244;54.326;10.074;2023-08-07T08:57:39;17.20;99.90
2465;DHT22;1244;54.326;10.074;2023-08-07T09:00:06;17.20;99.90
2465;DHT22;1244;54.326;10.074;2023-08-07T09:02:50;17.00;99.90
2465;DHT22;1244;54.326;10.074;2023-08-07T09:05:19;17.20;99.90
2465;DHT22;1244;54.326;10.074;2023-08-07T09:07:48;17.20;99.90
2465;DHT22;1244;54.326;10.074;2023-08-07T09:10:15;17.30;99.90
2465;DHT22;1244;54.326;10.074;2023-08-07T09:12:45;17.20;99.90
2465;DHT22;1244;54.326;10.074;2023-08-07T09:15:15;17.40;99.90
2465;DHT22;1244;54.326;10.074;2023-08-07T09:17:42;17.30;99.90
2465;DHT22;1244;54.326;10.074;2023-08-07T09:20:09;17.20;99.90
2465;DHT22;1244;54.326;10.074;2023-08-07T09:22:39;17.20;99.90
2465;DHT22;1244;54.326;10.074;2023-08-07T09:25:05;17.00;99.90
2465;DHT22;1244;54.326;10.074;2023-08-07T09:27:31;16.90;99.90
2465;DHT22;1244;54.326;10.074;2023-08-07T09:29:58;16.80;99.90
2465;DHT22;1244;54.326;10.074;2023-08-07T09:32:23;17.00;99.90
2465;DHT22;1244;54.326;10.074;2023-08-07T09:34:50;17.00;99.90
2465;DHT22;1244;54.326;10.074;2023-08-07T09:37:17;17.10;99.90
2465;DHT22;1244;54.326;10.074;2023-08-07T09:39:42;17.30;99.90
2465;DHT22;1244;54.326;10.074;2023-08-07T09:42:15;17.20;99.90
2465;DHT22;1244;54.326;10.074;2023-08-07T09:44:42;17.20;99.90
2465;DHT22;1244;54.326;10.074;2023-08-07T09:47:16;17.10;99.90
2465;DHT22;1244;54.326;10.074;2023-08-07T09:49:42;17.00;99.90
2465;DHT22;1244;54.326;10.074;2023-08-07T09:52:10;16.90;99.90
2465;DHT22;1244;54.326;10.074;2023-08-07T09:54:36;16.70;99.90
2465;DHT22;1244;54.326;10.074;2023-08-07T09:57:02;16.70;99.90
2465;DHT22;1244;54.326;10.074;2023-08-07T09:59:28;16.50;99.90
2465;DHT22;1244;54.326;10.074;2023-08-07T10:01:54;16.70;99.90
2465;DHT22;1244;54.326;10.074;2023-08-07T10:04:23;16.90;99.90
2465;DHT22;1244;54.326;10.074;2023-08-07T10:06:50;17.00;99.90
2465;DHT22;1244;54.326;10.074;2023-08-07T10:09:16;16.80;99.90
2465;DHT22;1244;54.326;10.074;2023-08-07T10:11:42;16.70;99.90
2465;DHT22;1244;54.326;10.074;2023-08-07T10:14:15;16.90;99.90
2465;DHT22;1244;54.326;10.074;2023-08-07T10:16:41;17.30;99.90
2465;DHT22;1244;54.326;10.074;2023-08-07T10:19:08;17.80;99.90
2465;DHT22;1244;54.326;10.074;2023-08-07T10:21:39;17.70;99.90
2465;DHT22;1244;54.326;10.074;2023-08-07T10:24:08;18.40;99.90
2465;DHT22;1244;54.326;10.074;2023-08-07T10:26:35;19.30;99.90
2465;DHT22;1244;54.326;10.074;2023-08-07T10:29:04;18.70;99.90
2465;DHT22;1244;54.326;10.074;2023-08-07T10:31:32;18.50;99.90
2465;DHT22;1244;54.326;10.074;2023-08-07T10:33:58;19.20;99.90
2465;DHT22;1244;54.326;10.074;2023-08-07T10:36:32;19.70;99.90
2465;DHT22;1244;54.326;10.074;2023-08-07T10:39:11;19.30;99.90
2465;DHT22;1244;54.326;10.074;2023-08-07T10:41:45;18.80;99.90
2465;DHT22;1244;54.326;10.074;2023-08-07T10:44:19;18.30;99.90
2465;DHT22;1244;54.326;10.074;2023-08-07T10:49:38;18.60;99.90
2465;DHT22;1244;54.326;10.074;2023-08-07T10:52:08;18.40;99.90
2465;DHT22;1244;54.326;10.074;2023-08-07T10:54:47;18.70;99.90
2465;DHT22;1244;54.326;10.074;2023-08-07T10:57:15;19.60;99.90
2465;DHT22;1244;54.326;10.074;2023-08-07T11:02:26;19.20;99.90
2465;DHT22;1244;54.326;10.074;2023-08-07T11:04:53;19.70;99.90
2465;DHT22;1244;54.326;10.074;2023-08-07T11:07:26;19.20;99.90
2465;DHT22;1244;54.326;10.074;2023-08-07T11:09:53;19.40;99.90
2465;DHT22;1244;54.326;10.074;2023-08-07T11:12:19;19.00;99.90
2465;DHT22;1244;54.326;10.074;2023-08-07T11:14:45;19.50;99.90
2465;DHT22;1244;54.326;10.074;2023-08-07T11:17:11;19.30;99.90
2465;DHT22;1244;54.326;10.074;2023-08-07T11:19:37;18.90;99.90
2465;DHT22;1244;54.326;10.074;2023-08-07T11:22:03;18.50;99.90
2465;DHT22;1244;54.326;10.074;2023-08-07T11:24:29;19.40;99.90
2465;DHT22;1244;54.326;10.074;2023-08-07T11:26:56;19.80;99.90
2465;DHT22;1244;54.326;10.074;2023-08-07T11:29:22;19.40;99.90
2465;DHT22;1244;54.326;10.074;2023-08-07T11:31:50;19.40;99.90
2465;DHT22;1244;54.326;10.074;2023-08-07T11:34:19;19.90;99.90
2465;DHT22;1244;54.326;10.074;2023-08-07T11:36:45;19.40;99.90
2465;DHT22;1244;54.326;10.074;2023-08-07T11:39:11;19.60;99.90
2465;DHT22;1244;54.326;10.074;2023-08-07T11:41:37;19.60;99.90
2465;DHT22;1244;54.326;10.074;2023-08-07T11:44:03;19.90;99.90
2465;DHT22;1244;54.326;10.074;2023-08-07T11:46:29;19.50;99.90
2465;DHT22;1244;54.326;10.074;2023-08-07T11:48:56;19.20;99.90
2465;DHT22;1244;54.326;10.074;2023-08-07T11:51:22;19.60;99.90
2465;DHT22;1244;54.326;10.074;2023-08-07T11:53:48;20.10;99.90
2465;DHT22;1244;54.326;10.074;2023-08-07T11:56:14;19.40;99.90
2465;DHT22;1244;54.326;10.074;2023-08-07T11:58:45;19.20;99.90
2465;DHT22;1244;54.326;10.074;2023-08-07T12:01:25;19.20;99.90
2465;DHT22;1244;54.326;10.074;2023-08-07T12:06:33;19.90;99.90
2465;DHT22;1244;54.326;10.074;2023-08-07T12:09:00;19.70;99.90
2465;DHT22;1244;54.326;10.074;2023-08-07T12:11:28;19.20;99.90
2465;DHT22;1244;54.326;10.074;2023-08-07T12:13:55;18.80;99.90
2465;DHT22;1244;54.326;10.074;2023-08-07T12:16:20;18.50;99.90
2465;DHT22;1244;54.326;10.074;2023-08-07T12:18:48;18.10;99.90
2465;DHT22;1244;54.326;10.074;2023-08-07T12:21:18;18.60;99.90
2465;DHT22;1244;54.326;10.074;2023-08-07T12:23:49;19.00;99.90
2465;DHT22;1244;54.326;10.074;2023-08-07T12:26:16;19.50;99.90
2465;DHT22;1244;54.326;10.074;2023-08-07T12:28:41;20.00;99.90
2465;DHT22;1244;54.326;10.074;2023-08-07T12:31:07;20.60;99.90
2465;DHT22;1244;54.326;10.074;2023-08-07T12:33:33;21.20;99.90
2465;DHT22;1244;54.326;10.074;2023-08-07T12:35:59;21.30;99.90
2465;DHT22;1244;54.326;10.074;2023-08-07T12:38:25;20.20;99.90
2465;DHT22;1244;54.326;10.074;2023-08-07T12:40:51;19.40;99.90
2465;DHT22;1244;54.326;10.074;2023-08-07T12:43:17;18.80;99.90
2465;DHT22;1244;54.326;10.074;2023-08-07T12:45:43;18.60;99.90
2465;DHT22;1244;54.326;10.074;2023-08-07T12:48:08;18.30;99.90
2465;DHT22;1244;54.326;10.074;2023-08-07T12:50:35;17.60;99.90
2465;DHT22;1244;54.326;10.074;2023-08-07T12:53:02;17.30;99.90
2465;DHT22;1244;54.326;10.074;2023-08-07T12:55:29;17.00;99.90
2465;DHT22;1244;54.326;10.074;2023-08-07T12:57:56;17.40;99.90
2465;DHT22;1244;54.326;10.074;2023-08-07T13:00:22;17.50;99.90
2465;DHT22;1244;54.326;10.074;2023-08-07T13:02:49;17.50;99.90
2465;DHT22;1244;54.326;10.074;2023-08-07T13:05:16;17.60;99.90
2465;DHT22;1244;54.326;10.074;2023-08-07T13:07:44;17.40;99.90
2465;DHT22;1244;54.326;10.074;2023-08-07T13:10:12;16.60;99.90
2465;DHT22;1244;54.326;10.074;2023-08-07T13:12:42;16.40;99.90
2465;DHT22;1244;54.326;10.074;2023-08-07T13:15:09;17.00;99.90
2465;DHT22;1244;54.326;10.074;2023-08-07T13:17:36;16.50;99.90
2465;DHT22;1244;54.326;10.074;2023-08-07T13:20:05;16.50;99.90
2465;DHT22;1244;54.326;10.074;2023-08-07T13:22:37;16.30;99.90
2465;DHT22;1244;54.326;10.074;2023-08-07T13:25:04;16.40;99.90
2465;DHT22;1244;54.326;10.074;2023-08-07T13:27:31;16.30;99.90
2465;DHT22;1244;54.326;10.074;2023-08-07T13:29:56;17.10;99.90
2465;DHT22;1244;54.326;10.074;2023-08-07T13:32:22;17.90;99.90
2465;DHT22;1244;54.326;10.074;2023-08-07T13:34:47;18.20;99.90
2465;DHT22;1244;54.326;10.074;2023-08-07T13:37:13;18.40;99.90
2465;DHT22;1244;54.326;10.074;2023-08-07T13:39:40;19.10;99.90
2465;DHT22;1244;54.326;10.074;2023-08-07T13:42:05;19.40;99.90
2465;DHT22;1244;54.326;10.074;2023-08-07T13:44:31;19.90;99.90
2465;DHT22;1244;54.326;10.074;2023-08-07T13:46:57;19.40;99.90
2465;DHT22;1244;54.326;10.074;2023-08-07T13:49:22;18.40;99.90
2465;DHT22;1244;54.326;10.074;2023-08-07T13:51:49;18.20;99.90
2465;DHT22;1244;54.326;10.074;2023-08-07T13:54:14;18.20;99.90
2465;DHT22;1244;54.326;10.074;2023-08-07T13:56:40;18.10;99.90
2465;DHT22;1244;54.326;10.074;2023-08-07T13:59:05;17.80;99.90
2465;DHT22;1244;54.326;10.074;2023-08-07T14:01:31;17.60;99.90
2465;DHT22;1244;54.326;10.074;2023-08-07T14:03:58;18.00;99.90
2465;DHT22;1244;54.326;10.074;2023-08-07T14:06:24;18.50;99.90
2465;DHT22;1244;54.326;10.074;2023-08-07T14:08:49;18.10;99.90
2465;DHT22;1244;54.326;10.074;2023-08-07T14:11:15;18.20;99.90
2465;DHT22;1244;54.326;10.074;2023-08-07T14:13:41;18.70;99.90
2465;DHT22;1244;54.326;10.074;2023-08-07T14:16:07;19.30;99.90
2465;DHT22;1244;54.326;10.074;2023-08-07T14:18:33;19.10;99.90
2465;DHT22;1244;54.326;10.074;2023-08-07T14:20:58;19.50;99.90
2465;DHT22;1244;54.326;10.074;2023-08-07T14:23:25;19.30;99.90
2465;DHT22;1244;54.326;10.074;2023-08-07T14:25:50;18.80;99.90
2465;DHT22;1244;54.326;10.074;2023-08-07T14:28:18;18.50;99.90
2465;DHT22;1244;54.326;10.074;2023-08-07T14:30:44;18.50;99.90
2465;DHT22;1244;54.326;10.074;2023-08-07T14:33:09;18.30;99.90
2465;DHT22;1244;54.326;10.074;2023-08-07T14:35:35;18.10;99.90
2465;DHT22;1244;54.326;10.074;2023-08-07T14:38:00;18.40;99.90
2465;DHT22;1244;54.326;10.074;2023-08-07T14:40:26;18.50;99.90
2465;DHT22;1244;54.326;10.074;2023-08-07T14:42:53;18.20;99.90
2465;DHT22;1244;54.326;10.074;2023-08-07T14:45:19;18.10;99.90
2465;DHT22;1244;54.326;10.074;2023-08-07T14:47:45;18.20;99.90
2465;DHT22;1244;54.326;10.074;2023-08-07T14:50:11;17.90;99.90
2465;DHT22;1244;54.326;10.074;2023-08-07T14:52:36;18.00;99.90
2465;DHT22;1244;54.326;10.074;2023-08-07T14:55:03;18.00;99.90
2465;DHT22;1244;54.326;10.074;2023-08-07T14:57:29;17.40;99.90
2465;DHT22;1244;54.326;10.074;2023-08-07T14:59:54;17.50;99.90
2465;DHT22;1244;54.326;10.074;2023-08-07T15:02:20;17.70;99.90
2465;DHT22;1244;54.326;10.074;2023-08-07T15:04:45;17.60;99.90
2465;DHT22;1244;54.326;10.074;2023-08-07T15:07:11;17.60;99.90
2465;DHT22;1244;54.326;10.074;2023-08-07T15:09:37;17.20;99.90
2465;DHT22;1244;54.326;10.074;2023-08-07T15:12:04;17.00;99.90
2465;DHT22;1244;54.326;10.074;2023-08-07T15:14:32;16.90;99.90
2465;DHT22;1244;54.326;10.074;2023-08-07T15:16:58;17.10;99.90
2465;DHT22;1244;54.326;10.074;2023-08-07T15:19:23;17.30;99.90
2465;DHT22;1244;54.326;10.074;2023-08-07T15:21:52;17.40;99.90
2465;DHT22;1244;54.326;10.074;2023-08-07T15:24:18;17.30;99.90
2465;DHT22;1244;54.326;10.074;2023-08-07T15:26:43;17.10;99.90
2465;DHT22;1244;54.326;10.074;2023-08-07T15:29:09;16.90;99.90
2465;DHT22;1244;54.326;10.074;2023-08-07T15:31:34;16.70;99.90
2465;DHT22;1244;54.326;10.074;2023-08-07T15:34:00;16.70;99.90
2465;DHT22;1244;54.326;10.074;2023-08-07T15:36:25;17.10;99.90
2465;DHT22;1244;54.326;10.074;2023-08-07T15:38:51;17.10;99.90
2465;DHT22;1244;54.326;10.074;2023-08-07T15:41:17;17.10;99.90
2465;DHT22;1244;54.326;10.074;2023-08-07T15:43:43;17.20;99.90
2465;DHT22;1244;54.326;10.074;2023-08-07T15:46:09;17.40;99.90
2465;DHT22;1244;54.326;10.074;2023-08-07T15:48:37;17.20;99.90
2465;DHT22;1244;54.326;10.074;2023-08-07T15:51:02;17.00;99.90
2465;DHT22;1244;54.326;10.074;2023-08-07T15:53:28;16.90;99.90